Latest  Newer  Older  Last 2 hours animation  Current image  Latest image 
Rain/snow radar  Infrared sat images 
Real-time lightning map

All time is UTC (add 2 hours to UTC in wintertime, 3 hours to UTC in DST for Latvia local time)

2020/10/19 17:50 EVRA 191750Z 27007KT 170V330 9999 FEW029 SCT033CB 06/00 Q1012 R18/190095 NOSIG
2020/10/19 17:50 EVLA 191750Z AUTO 30010KT 9999 SCT044/// 09/M00 Q1014
2020/10/19 17:50 EVVA 191750Z AUTO 31014G24KT 9999 FEW024 SCT030 OVC037 07/03 Q1013
2020/10/19 17:50 EYKA 191750Z 25009KT CAVOK 05/01 Q1016
2020/10/19 17:50 EYPA 191750Z AUTO 29007G17KT 250V340 9999 FEW041/// 09/01 Q1015
2020/10/19 17:50 EYSA 191750Z 24010KT CAVOK 05/M00 Q1014 BLU NOSIG
2020/10/19 17:50 EYVI 191750Z 24006KT CAVOK 03/01 Q1016 NOSIG
2020/10/19 15:20 EEKA 191520Z 30019G32KT 280V330 9999 -SHRA FEW009 SCT021CB BKN040 06/04 Q1006
2020/10/19 17:20 EEKE 191720Z AUTO 30007KT 260V330 9999NDV FEW027 05/01 Q1010
2020/10/19 13:20 EEPU 191320Z 26014KT 230V290 9999 VCSH SCT019 06/03 Q1005
2020/10/19 17:50 EETN 191750Z 34011KT 310V010 9999 OVC020 03/M00 Q1005 R08/19//95 NOSIG
2020/10/19 17:20 EETU 191720Z AUTO 26013KT 9999 DZ OVC009/// 03/02 Q1005
   RIGA AIRPORT     EVRA               56 55N  023 58E   10   X     T          6 LV
   LIEPAJA INTL     EVLA        26406  56 31N  021 06E    4   X                8 LV
   VENTPILS         EVVA               57 21N  021 33E    6   X                8 LV
   KAUNAS           EYKA               54 54N  023 55E   77   X     T          6 LT
   PALANGA INTL     EYPA               55 55N  021 03E   10   X                6 LT
   SIAULIAI INTL    EYSA               55 54N  023 24E  135   X     T          6 LT
   VILNIUS INTL     EYVI        26730  54 38N  025 17E  197   X     T          6 LT
   KARDLA           EEKA        26116  58 59N  022 50E    4   X                8 EE
   KURESSAARE       EEKE               58 14N  022 31E    4   X                8 EE
   PARNU            EEPU               58 25N  024 28E   14   X                8 EE
   TALLINN          EETN        26038  59 24N  024 49E   40   X     T          8 EE
   TARTU            EETU               58 19N  026 41E   67   X                8 EE

cloud coverage image from sat24.com and METAR data from weather.noaa.gov